sensor_id;sensor_type;location;lat;lon;timestamp;pressure;altitude;pressure_sealevel;temperature
18782;BMP180;9519;51.890;8.970;2023-07-24T00:02:51;98482.00;;;18.20
18782;BMP180;9519;51.890;8.970;2023-07-24T00:07:54;98466.00;;;18.20
18782;BMP180;9519;51.890;8.970;2023-07-24T00:12:57;98477.00;;;18.20
18782;BMP180;9519;51.890;8.970;2023-07-24T00:18:00;98466.00;;;18.20
18782;BMP180;9519;51.890;8.970;2023-07-24T00:23:02;98459.00;;;18.20
18782;BMP180;9519;51.890;8.970;2023-07-24T00:28:04;98457.00;;;18.10
18782;BMP180;9519;51.890;8.970;2023-07-24T00:33:08;98458.00;;;18.10
18782;BMP180;9519;51.890;8.970;2023-07-24T00:38:10;98463.00;;;18.10
18782;BMP180;9519;51.890;8.970;2023-07-24T00:43:12;98446.00;;;18.10
18782;BMP180;9519;51.890;8.970;2023-07-24T00:48:17;98459.00;;;18.10
18782;BMP180;9519;51.890;8.970;2023-07-24T00:53:20;98455.00;;;18.00
18782;BMP180;9519;51.890;8.970;2023-07-24T00:58:22;98439.00;;;18.00
18782;BMP180;9519;51.890;8.970;2023-07-24T01:03:34;98443.00;;;18.00
18782;BMP180;9519;51.890;8.970;2023-07-24T01:08:36;98442.00;;;18.00
18782;BMP180;9519;51.890;8.970;2023-07-24T01:13:45;98443.00;;;17.90
18782;BMP180;9519;51.890;8.970;2023-07-24T01:18:53;98431.00;;;17.90
18782;BMP180;9519;51.890;8.970;2023-07-24T01:24:06;98435.00;;;17.90
18782;BMP180;9519;51.890;8.970;2023-07-24T01:29:11;98437.00;;;17.90
18782;BMP180;9519;51.890;8.970;2023-07-24T01:34:14;98432.00;;;17.90
18782;BMP180;9519;51.890;8.970;2023-07-24T01:39:17;98415.00;;;17.90
18782;BMP180;9519;51.890;8.970;2023-07-24T01:44:21;98417.00;;;17.90
18782;BMP180;9519;51.890;8.970;2023-07-24T01:49:23;98426.00;;;17.90
18782;BMP180;9519;51.890;8.970;2023-07-24T01:54:26;98418.00;;;17.90
18782;BMP180;9519;51.890;8.970;2023-07-24T01:59:29;98415.00;;;17.90
18782;BMP180;9519;51.890;8.970;2023-07-24T02:04:31;98404.00;;;17.90
18782;BMP180;9519;51.890;8.970;2023-07-24T02:09:33;98403.00;;;17.90
18782;BMP180;9519;51.890;8.970;2023-07-24T02:14:37;98407.00;;;17.90
18782;BMP180;9519;51.890;8.970;2023-07-24T02:19:39;98403.00;;;17.80
18782;BMP180;9519;51.890;8.970;2023-07-24T02:24:41;98404.00;;;17.80
18782;BMP180;9519;51.890;8.970;2023-07-24T02:29:44;98386.00;;;17.80
18782;BMP180;9519;51.890;8.970;2023-07-24T02:34:47;98393.00;;;17.80
18782;BMP180;9519;51.890;8.970;2023-07-24T02:39:49;98382.00;;;17.80
18782;BMP180;9519;51.890;8.970;2023-07-24T02:44:53;98397.00;;;17.80
18782;BMP180;9519;51.890;8.970;2023-07-24T02:49:55;98386.00;;;17.80
18782;BMP180;9519;51.890;8.970;2023-07-24T02:54:57;98387.00;;;17.80
18782;BMP180;9519;51.890;8.970;2023-07-24T03:00:00;98390.00;;;17.80
18782;BMP180;9519;51.890;8.970;2023-07-24T03:05:02;98377.00;;;17.80
18782;BMP180;9519;51.890;8.970;2023-07-24T03:10:06;98382.00;;;17.80
18782;BMP180;9519;51.890;8.970;2023-07-24T03:15:10;98362.00;;;17.80
18782;BMP180;9519;51.890;8.970;2023-07-24T03:20:16;98372.00;;;17.70
18782;BMP180;9519;51.890;8.970;2023-07-24T03:25:18;98379.00;;;17.70
18782;BMP180;9519;51.890;8.970;2023-07-24T03:30:21;98377.00;;;17.70
18782;BMP180;9519;51.890;8.970;2023-07-24T03:35:24;98359.00;;;17.70
18782;BMP180;9519;51.890;8.970;2023-07-24T03:40:26;98349.00;;;17.60
18782;BMP180;9519;51.890;8.970;2023-07-24T03:45:31;98342.00;;;17.60
18782;BMP180;9519;51.890;8.970;2023-07-24T03:50:33;98343.00;;;17.60
18782;BMP180;9519;51.890;8.970;2023-07-24T03:55:35;98337.00;;;17.60
18782;BMP180;9519;51.890;8.970;2023-07-24T04:00:39;98327.00;;;17.60
18782;BMP180;9519;51.890;8.970;2023-07-24T04:05:41;98318.00;;;17.60
18782;BMP180;9519;51.890;8.970;2023-07-24T04:10:43;98297.00;;;17.60
18782;BMP180;9519;51.890;8.970;2023-07-24T04:15:46;98306.00;;;17.70
18782;BMP180;9519;51.890;8.970;2023-07-24T04:20:48;98281.00;;;17.80
18782;BMP180;9519;51.890;8.970;2023-07-24T04:25:50;98271.00;;;17.80
18782;BMP180;9519;51.890;8.970;2023-07-24T04:30:54;98253.00;;;17.90
18782;BMP180;9519;51.890;8.970;2023-07-24T04:35:56;98274.00;;;18.00
18782;BMP180;9519;51.890;8.970;2023-07-24T04:41:00;98256.00;;;18.10
18782;BMP180;9519;51.890;8.970;2023-07-24T04:46:04;98261.00;;;18.10
18782;BMP180;9519;51.890;8.970;2023-07-24T04:51:06;98252.00;;;18.20
18782;BMP180;9519;51.890;8.970;2023-07-24T04:56:08;98233.00;;;18.20
18782;BMP180;9519;51.890;8.970;2023-07-24T05:01:12;98264.00;;;18.20
18782;BMP180;9519;51.890;8.970;2023-07-24T05:06:14;98254.00;;;18.20
18782;BMP180;9519;51.890;8.970;2023-07-24T05:11:16;98251.00;;;18.30
18782;BMP180;9519;51.890;8.970;2023-07-24T05:16:20;98257.00;;;18.30
18782;BMP180;9519;51.890;8.970;2023-07-24T05:21:22;98256.00;;;18.40
18782;BMP180;9519;51.890;8.970;2023-07-24T05:26:24;98260.00;;;18.50
18782;BMP180;9519;51.890;8.970;2023-07-24T05:31:28;98242.00;;;18.50
18782;BMP180;9519;51.890;8.970;2023-07-24T05:36:30;98246.00;;;18.60
18782;BMP180;9519;51.890;8.970;2023-07-24T05:41:32;98239.00;;;18.60
18782;BMP180;9519;51.890;8.970;2023-07-24T05:46:35;98237.00;;;18.60
18782;BMP180;9519;51.890;8.970;2023-07-24T05:51:37;98233.00;;;18.70
18782;BMP180;9519;51.890;8.970;2023-07-24T05:56:39;98221.00;;;18.70
18782;BMP180;9519;51.890;8.970;2023-07-24T06:01:43;98224.00;;;18.80
18782;BMP180;9519;51.890;8.970;2023-07-24T06:06:45;98210.00;;;18.80
18782;BMP180;9519;51.890;8.970;2023-07-24T06:11:47;98216.00;;;18.90
18782;BMP180;9519;51.890;8.970;2023-07-24T06:16:50;98214.00;;;19.00
18782;BMP180;9519;51.890;8.970;2023-07-24T06:21:52;98219.00;;;19.00
18782;BMP180;9519;51.890;8.970;2023-07-24T06:26:55;98226.00;;;19.00
18782;BMP180;9519;51.890;8.970;2023-07-24T06:31:58;98221.00;;;19.00
18782;BMP180;9519;51.890;8.970;2023-07-24T06:37:00;98223.00;;;19.10
18782;BMP180;9519;51.890;8.970;2023-07-24T06:42:03;98222.00;;;19.10
18782;BMP180;9519;51.890;8.970;2023-07-24T06:47:07;98224.00;;;19.10
18782;BMP180;9519;51.890;8.970;2023-07-24T06:52:09;98228.00;;;19.20
18782;BMP180;9519;51.890;8.970;2023-07-24T06:57:11;98221.00;;;19.30
18782;BMP180;9519;51.890;8.970;2023-07-24T07:02:14;98233.00;;;19.30
18782;BMP180;9519;51.890;8.970;2023-07-24T07:07:16;98245.00;;;19.30
18782;BMP180;9519;51.890;8.970;2023-07-24T07:12:19;98259.00;;;19.00
18782;BMP180;9519;51.890;8.970;2023-07-24T07:17:22;98264.00;;;18.70
18782;BMP180;9519;51.890;8.970;2023-07-24T07:22:24;98256.00;;;18.50
18782;BMP180;9519;51.890;8.970;2023-07-24T07:27:26;98262.00;;;18.40
18782;BMP180;9519;51.890;8.970;2023-07-24T07:32:30;98264.00;;;18.30
18782;BMP180;9519;51.890;8.970;2023-07-24T07:37:32;98256.00;;;18.20
18782;BMP180;9519;51.890;8.970;2023-07-24T07:42:34;98272.00;;;18.10
18782;BMP180;9519;51.890;8.970;2023-07-24T07:47:38;98267.00;;;18.10
18782;BMP180;9519;51.890;8.970;2023-07-24T07:52:41;98269.00;;;18.10
18782;BMP180;9519;51.890;8.970;2023-07-24T07:57:43;98269.00;;;18.10
18782;BMP180;9519;51.890;8.970;2023-07-24T08:02:46;98268.00;;;18.10
18782;BMP180;9519;51.890;8.970;2023-07-24T08:07:48;98262.00;;;18.20
18782;BMP180;9519;51.890;8.970;2023-07-24T08:12:50;98259.00;;;18.20
18782;BMP180;9519;51.890;8.970;2023-07-24T08:17:54;98255.00;;;18.20
18782;BMP180;9519;51.890;8.970;2023-07-24T08:22:56;98242.00;;;18.40
18782;BMP180;9519;51.890;8.970;2023-07-24T08:27:58;98243.00;;;18.50
18782;BMP180;9519;51.890;8.970;2023-07-24T08:33:02;98241.00;;;18.60
18782;BMP180;9519;51.890;8.970;2023-07-24T08:38:04;98229.00;;;18.70
18782;BMP180;9519;51.890;8.970;2023-07-24T08:43:06;98217.00;;;18.80
18782;BMP180;9519;51.890;8.970;2023-07-24T08:48:10;98210.00;;;19.00
18782;BMP180;9519;51.890;8.970;2023-07-24T08:53:14;98225.00;;;19.20
18782;BMP180;9519;51.890;8.970;2023-07-24T08:58:16;98218.00;;;19.30
18782;BMP180;9519;51.890;8.970;2023-07-24T09:03:20;98200.00;;;19.50
18782;BMP180;9519;51.890;8.970;2023-07-24T09:08:32;98196.00;;;19.70
18782;BMP180;9519;51.890;8.970;2023-07-24T09:13:37;98205.00;;;19.90
18782;BMP180;9519;51.890;8.970;2023-07-24T09:18:42;98202.00;;;20.00
18782;BMP180;9519;51.890;8.970;2023-07-24T09:23:45;98209.00;;;20.20
18782;BMP180;9519;51.890;8.970;2023-07-24T09:28:52;98200.00;;;20.20
18782;BMP180;9519;51.890;8.970;2023-07-24T09:33:56;98207.00;;;20.30
18782;BMP180;9519;51.890;8.970;2023-07-24T09:39:00;98211.00;;;20.30
18782;BMP180;9519;51.890;8.970;2023-07-24T09:44:07;98211.00;;;20.40
18782;BMP180;9519;51.890;8.970;2023-07-24T09:49:11;98205.00;;;20.50
18782;BMP180;9519;51.890;8.970;2023-07-24T09:54:19;98219.00;;;20.60
18782;BMP180;9519;51.890;8.970;2023-07-24T09:59:26;98201.00;;;20.50
18782;BMP180;9519;51.890;8.970;2023-07-24T10:04:33;98169.00;;;20.60
18782;BMP180;9519;51.890;8.970;2023-07-24T10:09:36;98175.00;;;20.70
18782;BMP180;9519;51.890;8.970;2023-07-24T10:14:38;98186.00;;;20.90
18782;BMP180;9519;51.890;8.970;2023-07-24T10:19:42;98200.00;;;21.00
18782;BMP180;9519;51.890;8.970;2023-07-24T10:24:45;98177.00;;;21.20
18782;BMP180;9519;51.890;8.970;2023-07-24T10:29:59;98176.00;;;21.20
18782;BMP180;9519;51.890;8.970;2023-07-24T10:35:07;98166.00;;;21.30
18782;BMP180;9519;51.890;8.970;2023-07-24T10:40:20;98168.00;;;21.40
18782;BMP180;9519;51.890;8.970;2023-07-24T10:45:23;98176.00;;;21.70
18782;BMP180;9519;51.890;8.970;2023-07-24T10:50:38;98155.00;;;21.80
18782;BMP180;9519;51.890;8.970;2023-07-24T10:55:40;98160.00;;;21.90
18782;BMP180;9519;51.890;8.970;2023-07-24T11:00:44;98162.00;;;22.00
18782;BMP180;9519;51.890;8.970;2023-07-24T11:05:48;98156.00;;;22.10
18782;BMP180;9519;51.890;8.970;2023-07-24T11:10:53;98140.00;;;22.30
18782;BMP180;9519;51.890;8.970;2023-07-24T11:15:56;98147.00;;;22.50
18782;BMP180;9519;51.890;8.970;2023-07-24T11:21:00;98142.00;;;22.60
18782;BMP180;9519;51.890;8.970;2023-07-24T11:26:05;98153.00;;;22.70
18782;BMP180;9519;51.890;8.970;2023-07-24T11:31:09;98145.00;;;22.90
18782;BMP180;9519;51.890;8.970;2023-07-24T11:36:14;98145.00;;;22.80
18782;BMP180;9519;51.890;8.970;2023-07-24T11:41:17;98138.00;;;22.70
18782;BMP180;9519;51.890;8.970;2023-07-24T11:46:23;98130.00;;;22.80
18782;BMP180;9519;51.890;8.970;2023-07-24T11:51:27;98134.00;;;22.90
18782;BMP180;9519;51.890;8.970;2023-07-24T11:56:30;98114.00;;;22.80
18782;BMP180;9519;51.890;8.970;2023-07-24T12:01:32;98117.00;;;22.80
18782;BMP180;9519;51.890;8.970;2023-07-24T12:06:37;98110.00;;;23.00
18782;BMP180;9519;51.890;8.970;2023-07-24T12:11:40;98090.00;;;23.20
18782;BMP180;9519;51.890;8.970;2023-07-24T12:16:43;98077.00;;;23.30
18782;BMP180;9519;51.890;8.970;2023-07-24T12:21:46;98077.00;;;23.40
18782;BMP180;9519;51.890;8.970;2023-07-24T12:26:48;98060.00;;;23.40
18782;BMP180;9519;51.890;8.970;2023-07-24T12:31:51;98062.00;;;23.60
18782;BMP180;9519;51.890;8.970;2023-07-24T12:36:54;98054.00;;;23.80
18782;BMP180;9519;51.890;8.970;2023-07-24T12:41:56;98058.00;;;23.70
18782;BMP180;9519;51.890;8.970;2023-07-24T12:46:58;98051.00;;;23.70
18782;BMP180;9519;51.890;8.970;2023-07-24T12:52:02;98059.00;;;23.70
18782;BMP180;9519;51.890;8.970;2023-07-24T12:57:05;98050.00;;;23.50
18782;BMP180;9519;51.890;8.970;2023-07-24T13:02:08;98051.00;;;23.30
18782;BMP180;9519;51.890;8.970;2023-07-24T13:07:11;98059.00;;;23.10
18782;BMP180;9519;51.890;8.970;2023-07-24T13:12:13;98054.00;;;22.90
18782;BMP180;9519;51.890;8.970;2023-07-24T13:17:16;98049.00;;;22.90
18782;BMP180;9519;51.890;8.970;2023-07-24T13:22:19;98049.00;;;22.70
18782;BMP180;9519;51.890;8.970;2023-07-24T13:27:22;98081.00;;;22.40
18782;BMP180;9519;51.890;8.970;2023-07-24T13:32:24;98104.00;;;22.00
18782;BMP180;9519;51.890;8.970;2023-07-24T13:37:27;98094.00;;;21.50
18782;BMP180;9519;51.890;8.970;2023-07-24T13:42:29;98105.00;;;21.20
18782;BMP180;9519;51.890;8.970;2023-07-24T13:47:31;98102.00;;;20.60
18782;BMP180;9519;51.890;8.970;2023-07-24T13:52:35;98161.00;;;20.20
18782;BMP180;9519;51.890;8.970;2023-07-24T13:57:37;98184.00;;;19.70
18782;BMP180;9519;51.890;8.970;2023-07-24T14:02:39;98226.00;;;19.10
18782;BMP180;9519;51.890;8.970;2023-07-24T14:07:43;98230.00;;;18.40
18782;BMP180;9519;51.890;8.970;2023-07-24T14:12:45;98155.00;;;17.80
18782;BMP180;9519;51.890;8.970;2023-07-24T14:17:48;98175.00;;;17.40
18782;BMP180;9519;51.890;8.970;2023-07-24T14:22:51;98034.00;;;17.30
18782;BMP180;9519;51.890;8.970;2023-07-24T14:27:53;98006.00;;;17.30
18782;BMP180;9519;51.890;8.970;2023-07-24T14:32:55;98068.00;;;17.70
18782;BMP180;9519;51.890;8.970;2023-07-24T14:37:59;98081.00;;;18.20
18782;BMP180;9519;51.890;8.970;2023-07-24T14:43:01;98079.00;;;19.10
18782;BMP180;9519;51.890;8.970;2023-07-24T14:48:04;98046.00;;;19.50
18782;BMP180;9519;51.890;8.970;2023-07-24T14:53:10;98034.00;;;20.30
18782;BMP180;9519;51.890;8.970;2023-07-24T14:58:13;97974.00;;;21.00
18782;BMP180;9519;51.890;8.970;2023-07-24T15:03:15;97996.00;;;21.40
18782;BMP180;9519;51.890;8.970;2023-07-24T15:08:20;97973.00;;;22.00
18782;BMP180;9519;51.890;8.970;2023-07-24T15:24:18;97987.00;;;22.50
18782;BMP180;9519;51.890;8.970;2023-07-24T15:29:20;98000.00;;;22.20
18782;BMP180;9519;51.890;8.970;2023-07-24T15:34:22;98009.00;;;22.00
18782;BMP180;9519;51.890;8.970;2023-07-24T15:39:25;98000.00;;;22.00
18782;BMP180;9519;51.890;8.970;2023-07-24T15:44:27;98008.00;;;22.20
18782;BMP180;9519;51.890;8.970;2023-07-24T15:49:29;98009.00;;;22.00
18782;BMP180;9519;51.890;8.970;2023-07-24T15:54:34;98006.00;;;21.60
18782;BMP180;9519;51.890;8.970;2023-07-24T15:59:36;98022.00;;;21.50
18782;BMP180;9519;51.890;8.970;2023-07-24T16:04:38;98033.00;;;21.50
18782;BMP180;9519;51.890;8.970;2023-07-24T16:09:44;98040.00;;;21.60
18782;BMP180;9519;51.890;8.970;2023-07-24T16:14:48;98039.00;;;21.90
18782;BMP180;9519;51.890;8.970;2023-07-24T16:19:50;98031.00;;;22.20
18782;BMP180;9519;51.890;8.970;2023-07-24T16:24:53;98029.00;;;22.20
18782;BMP180;9519;51.890;8.970;2023-07-24T16:29:55;98022.00;;;21.90
18782;BMP180;9519;51.890;8.970;2023-07-24T16:34:57;98038.00;;;21.60
18782;BMP180;9519;51.890;8.970;2023-07-24T16:40:01;98050.00;;;21.50
18782;BMP180;9519;51.890;8.970;2023-07-24T16:45:11;98053.00;;;21.20
18782;BMP180;9519;51.890;8.970;2023-07-24T16:50:13;98065.00;;;20.90
18782;BMP180;9519;51.890;8.970;2023-07-24T16:55:17;98066.00;;;20.50
18782;BMP180;9519;51.890;8.970;2023-07-24T17:00:20;98042.00;;;20.40
18782;BMP180;9519;51.890;8.970;2023-07-24T17:05:22;98056.00;;;20.50
18782;BMP180;9519;51.890;8.970;2023-07-24T17:10:25;98051.00;;;20.40
18782;BMP180;9519;51.890;8.970;2023-07-24T17:15:31;98060.00;;;20.40
18782;BMP180;9519;51.890;8.970;2023-07-24T17:20:33;98068.00;;;20.30
18782;BMP180;9519;51.890;8.970;2023-07-24T17:25:37;98078.00;;;20.10
18782;BMP180;9519;51.890;8.970;2023-07-24T17:30:40;98086.00;;;19.90
18782;BMP180;9519;51.890;8.970;2023-07-24T17:35:42;98101.00;;;19.80
18782;BMP180;9519;51.890;8.970;2023-07-24T17:40:45;98097.00;;;19.60
18782;BMP180;9519;51.890;8.970;2023-07-24T17:45:48;98099.00;;;19.60
18782;BMP180;9519;51.890;8.970;2023-07-24T17:50:50;98093.00;;;19.50
18782;BMP180;9519;51.890;8.970;2023-07-24T17:55:53;98110.00;;;19.50
18782;BMP180;9519;51.890;8.970;2023-07-24T18:00:56;98112.00;;;19.40
18782;BMP180;9519;51.890;8.970;2023-07-24T18:05:58;98111.00;;;19.20
18782;BMP180;9519;51.890;8.970;2023-07-24T18:11:02;98097.00;;;19.10
18782;BMP180;9519;51.890;8.970;2023-07-24T18:16:04;98093.00;;;19.10
18782;BMP180;9519;51.890;8.970;2023-07-24T18:21:09;98096.00;;;18.90
18782;BMP180;9519;51.890;8.970;2023-07-24T18:26:15;98111.00;;;18.70
18782;BMP180;9519;51.890;8.970;2023-07-24T18:31:17;98137.00;;;18.50
18782;BMP180;9519;51.890;8.970;2023-07-24T18:36:19;98155.00;;;18.20
18782;BMP180;9519;51.890;8.970;2023-07-24T18:41:28;98166.00;;;17.90
18782;BMP180;9519;51.890;8.970;2023-07-24T18:46:30;98182.00;;;17.60
18782;BMP180;9519;51.890;8.970;2023-07-24T18:51:32;98189.00;;;17.40
18782;BMP180;9519;51.890;8.970;2023-07-24T18:56:35;98203.00;;;17.20
18782;BMP180;9519;51.890;8.970;2023-07-24T19:01:37;98214.00;;;17.10
18782;BMP180;9519;51.890;8.970;2023-07-24T19:06:42;98210.00;;;16.90
18782;BMP180;9519;51.890;8.970;2023-07-24T19:11:45;98225.00;;;16.70
18782;BMP180;9519;51.890;8.970;2023-07-24T19:16:48;98237.00;;;16.80
18782;BMP180;9519;51.890;8.970;2023-07-24T19:21:50;98241.00;;;16.70
18782;BMP180;9519;51.890;8.970;2023-07-24T19:26:54;98240.00;;;16.70
18782;BMP180;9519;51.890;8.970;2023-07-24T19:31:56;98261.00;;;16.60
18782;BMP180;9519;51.890;8.970;2023-07-24T19:36:59;98266.00;;;16.60
18782;BMP180;9519;51.890;8.970;2023-07-24T19:42:05;98265.00;;;16.60
18782;BMP180;9519;51.890;8.970;2023-07-24T19:47:08;98280.00;;;16.50
18782;BMP180;9519;51.890;8.970;2023-07-24T19:52:15;98291.00;;;16.50
18782;BMP180;9519;51.890;8.970;2023-07-24T19:57:19;98280.00;;;16.40
18782;BMP180;9519;51.890;8.970;2023-07-24T20:02:21;98287.00;;;16.30
18782;BMP180;9519;51.890;8.970;2023-07-24T20:07:23;98292.00;;;16.20
18782;BMP180;9519;51.890;8.970;2023-07-24T20:12:27;98284.00;;;16.20
18782;BMP180;9519;51.890;8.970;2023-07-24T20:17:31;98280.00;;;16.10
18782;BMP180;9519;51.890;8.970;2023-07-24T20:22:42;98288.00;;;16.10
18782;BMP180;9519;51.890;8.970;2023-07-24T20:27:47;98283.00;;;16.10
18782;BMP180;9519;51.890;8.970;2023-07-24T20:32:50;98286.00;;;16.10
18782;BMP180;9519;51.890;8.970;2023-07-24T20:37:52;98308.00;;;16.00
18782;BMP180;9519;51.890;8.970;2023-07-24T20:42:55;98300.00;;;16.00
18782;BMP180;9519;51.890;8.970;2023-07-24T20:47:57;98300.00;;;16.00
18782;BMP180;9519;51.890;8.970;2023-07-24T20:53:00;98309.00;;;16.00
18782;BMP180;9519;51.890;8.970;2023-07-24T20:58:03;98316.00;;;16.00
18782;BMP180;9519;51.890;8.970;2023-07-24T21:03:05;98309.00;;;16.00
18782;BMP180;9519;51.890;8.970;2023-07-24T21:08:09;98316.00;;;16.00
18782;BMP180;9519;51.890;8.970;2023-07-24T21:13:12;98327.00;;;16.00
18782;BMP180;9519;51.890;8.970;2023-07-24T21:18:17;98315.00;;;16.00
18782;BMP180;9519;51.890;8.970;2023-07-24T21:23:22;98332.00;;;16.00
18782;BMP180;9519;51.890;8.970;2023-07-24T21:28:27;98324.00;;;15.90
18782;BMP180;9519;51.890;8.970;2023-07-24T21:33:29;98325.00;;;15.90
18782;BMP180;9519;51.890;8.970;2023-07-24T21:38:31;98341.00;;;15.80
18782;BMP180;9519;51.890;8.970;2023-07-24T21:43:35;98336.00;;;15.70
18782;BMP180;9519;51.890;8.970;2023-07-24T21:48:38;98342.00;;;15.70
18782;BMP180;9519;51.890;8.970;2023-07-24T21:53:49;98337.00;;;15.60
18782;BMP180;9519;51.890;8.970;2023-07-24T21:58:52;98346.00;;;15.60
18782;BMP180;9519;51.890;8.970;2023-07-24T22:03:55;98360.00;;;15.60
18782;BMP180;9519;51.890;8.970;2023-07-24T22:08:57;98350.00;;;15.50
18782;BMP180;9519;51.890;8.970;2023-07-24T22:14:02;98350.00;;;15.50
18782;BMP180;9519;51.890;8.970;2023-07-24T22:19:04;98361.00;;;15.50
18782;BMP180;9519;51.890;8.970;2023-07-24T22:24:06;98356.00;;;15.40
18782;BMP180;9519;51.890;8.970;2023-07-24T22:29:10;98352.00;;;15.30
18782;BMP180;9519;51.890;8.970;2023-07-24T22:34:15;98366.00;;;15.20
18782;BMP180;9519;51.890;8.970;2023-07-24T22:39:20;98349.00;;;15.00
18782;BMP180;9519;51.890;8.970;2023-07-24T22:44:24;98364.00;;;14.90
18782;BMP180;9519;51.890;8.970;2023-07-24T22:49:26;98375.00;;;14.80
18782;BMP180;9519;51.890;8.970;2023-07-24T22:54:28;98389.00;;;14.70
18782;BMP180;9519;51.890;8.970;2023-07-24T22:59:31;98388.00;;;14.70
18782;BMP180;9519;51.890;8.970;2023-07-24T23:04:34;98381.00;;;14.70
18782;BMP180;9519;51.890;8.970;2023-07-24T23:09:36;98373.00;;;14.60
18782;BMP180;9519;51.890;8.970;2023-07-24T23:14:42;98380.00;;;14.60
18782;BMP180;9519;51.890;8.970;2023-07-24T23:19:44;98383.00;;;14.50
18782;BMP180;9519;51.890;8.970;2023-07-24T23:24:47;98384.00;;;14.40
18782;BMP180;9519;51.890;8.970;2023-07-24T23:29:53;98386.00;;;14.40
18782;BMP180;9519;51.890;8.970;2023-07-24T23:34:55;98387.00;;;14.40
18782;BMP180;9519;51.890;8.970;2023-07-24T23:39:57;98391.00;;;14.40
18782;BMP180;9519;51.890;8.970;2023-07-24T23:45:01;98388.00;;;14.40
18782;BMP180;9519;51.890;8.970;2023-07-24T23:50:04;98383.00;;;14.40
18782;BMP180;9519;51.890;8.970;2023-07-24T23:55:07;98380.00;;;14.30
